createdAt,value
2019-02-26T00:04:05.477Z,68.96
2019-02-26T00:09:10.503Z,69.01
2019-02-26T00:14:17.533Z,69.30
2019-02-26T00:19:17.357Z,69.16
2019-02-26T00:24:20.737Z,69.96
2019-02-26T00:29:25.352Z,70.53
2019-02-26T00:34:27.624Z,68.46
2019-02-26T00:39:31.538Z,69.57
2019-02-26T00:44:35.284Z,67.28
2019-02-26T00:49:37.987Z,68.73
2019-02-26T00:54:41.436Z,68.09
2019-02-26T00:59:47.992Z,68.15
2019-02-26T01:04:50.992Z,69.74
2019-02-26T01:09:54.658Z,69.00
2019-02-26T01:14:56.454Z,68.12
2019-02-26T01:20:01.106Z,68.41
2019-02-26T01:25:03.501Z,68.75
2019-02-26T01:30:08.365Z,69.03
2019-02-26T01:35:12.919Z,69.29
2019-02-26T01:40:18.392Z,68.50
2019-02-26T01:45:19.641Z,69.54
2019-02-26T01:50:22.508Z,68.89
2019-02-26T01:55:27.701Z,69.08
2019-02-26T02:00:29.393Z,70.16
2019-02-26T02:05:32.884Z,69.86
2019-02-26T02:10:36.333Z,69.16
2019-02-26T02:15:40.520Z,70.22
2019-02-26T02:20:43.093Z,69.36
2019-02-26T02:25:46.610Z,70.03
2019-02-26T02:30:50.096Z,70.30
2019-02-26T02:35:53.462Z,68.85
2019-02-26T02:40:56.818Z,69.67
2019-02-26T02:46:01.357Z,69.81
2019-02-26T02:51:05.458Z,69.68
2019-02-26T02:56:09.859Z,69.11
2019-02-26T03:01:10.536Z,70.23
2019-02-26T03:06:13.985Z,69.93
2019-02-26T03:11:17.343Z,69.37
2019-02-26T03:16:23.923Z,70.08
2019-02-26T03:21:27.768Z,69.98
2019-02-26T03:26:28.772Z,69.33
2019-02-26T03:31:34.839Z,71.42
2019-02-26T03:36:38.260Z,71.27
2019-02-26T03:41:39.112Z,69.72
2019-02-26T03:46:42.602Z,70.57
2019-02-26T03:51:46.050Z,69.47
2019-02-26T03:56:49.440Z,69.14
2019-02-26T04:01:52.836Z,70.53
2019-02-26T04:06:58.466Z,69.30
2019-02-26T04:11:59.620Z,69.02
2019-02-26T04:17:04.026Z,70.91
2019-02-26T04:22:18.817Z,70.36
2019-02-26T04:27:36.327Z,71.09
2019-02-26T04:32:49.051Z,71.58
2019-02-26T04:38:04.097Z,70.67
2019-02-26T04:43:27.820Z,70.51
2019-02-26T04:48:34.234Z,70.21
2019-02-26T04:53:36.478Z,71.32
2019-02-26T04:58:41.894Z,71.03
2019-02-26T05:03:42.201Z,70.68
2019-02-26T05:08:46.288Z,71.24
2019-02-26T05:13:49.753Z,70.30
2019-02-26T05:18:54.923Z,71.03
2019-02-26T05:23:57.637Z,70.60
2019-02-26T05:29:00.346Z,70.74
2019-02-26T05:34:03.800Z,70.63
2019-02-26T05:39:08.439Z,71.16
2019-02-26T05:44:11.905Z,70.63
2019-02-26T05:49:17.059Z,70.71
2019-02-26T05:54:21.590Z,71.45
2019-02-26T05:59:22.480Z,71.92
2019-02-26T06:04:25.921Z,71.83
2019-02-26T06:09:31.191Z,72.48
2019-02-26T06:14:33.773Z,70.62
2019-02-26T06:19:45.126Z,70.44
2019-02-26T06:24:48.244Z,70.03
2019-02-26T06:29:55.048Z,70.99
2019-02-26T06:34:55.198Z,70.98
2019-02-26T06:40:00.625Z,70.83
2019-02-26T06:45:04.009Z,70.88
2019-02-26T06:50:08.192Z,70.01
2019-02-26T06:55:10.052Z,70.24
2019-02-26T07:00:16.236Z,69.25
2019-02-26T07:05:17.803Z,70.19
2019-02-26T07:10:24.287Z,70.38
2019-02-26T07:15:28.736Z,68.85
2019-02-26T07:20:33.993Z,70.08
2019-02-26T07:25:33.728Z,69.67
2019-02-26T07:30:37.452Z,71.24
2019-02-26T07:35:39.714Z,70.10
2019-02-26T07:40:42.189Z,70.36
2019-02-26T07:45:45.576Z,69.74
2019-02-26T07:50:50.709Z,70.45
2019-02-26T07:55:52.507Z,69.64
2019-02-26T08:00:55.901Z,70.44
2019-02-26T08:06:00.934Z,69.02
2019-02-26T08:11:02.786Z,69.47
2019-02-26T08:16:06.283Z,69.29
2019-02-26T08:21:09.696Z,68.84
2019-02-26T08:26:15.001Z,67.64
2019-02-26T08:31:18.511Z,67.55
2019-02-26T08:36:20.352Z,67.57
2019-02-26T08:41:23.907Z,67.46
2019-02-26T08:46:27.321Z,67.31
2019-02-26T08:51:30.750Z,66.08
2019-02-26T08:56:36.285Z,65.73
2019-02-26T09:01:37.688Z,66.03
2019-02-26T09:06:41.208Z,65.32
2019-02-26T09:11:44.773Z,64.83
2019-02-26T09:16:51.957Z,64.63
2019-02-26T09:21:52.486Z,64.11
2019-02-26T09:26:57.388Z,61.38
2019-02-26T09:31:58.829Z,59.73
2019-02-26T09:37:03.520Z,57.56
2019-02-26T09:42:06.552Z,57.65
2019-02-26T09:47:09.386Z,56.82
2019-02-26T09:52:12.915Z,56.04
2019-02-26T09:57:18.104Z,55.57
2019-02-26T10:02:21.864Z,55.39
2019-02-26T10:07:23.209Z,54.30
2019-02-26T10:12:27.995Z,53.44
2019-02-26T10:17:30.161Z,53.62
2019-02-26T10:22:35.685Z,52.01
2019-02-26T10:27:38.802Z,51.12
2019-02-26T10:32:40.544Z,52.14
2019-02-26T10:37:46.037Z,50.07
2019-02-26T10:42:49.478Z,49.50
2019-02-26T10:47:54.190Z,48.70
2019-02-26T10:53:01.403Z,47.98
2019-02-26T10:58:04.719Z,48.05
2019-02-26T11:03:03.753Z,48.31
2019-02-26T11:08:09.293Z,47.38
2019-02-26T11:13:13.023Z,46.19
2019-02-26T11:18:15.131Z,45.77
2019-02-26T11:23:17.836Z,46.19
2019-02-26T11:28:21.351Z,45.23
2019-02-26T11:33:24.923Z,44.64
2019-02-26T11:38:28.554Z,41.89
2019-02-26T11:43:31.955Z,42.18
2019-02-26T11:48:35.457Z,40.00
2019-02-26T11:53:38.988Z,39.76
2019-02-26T11:58:42.384Z,35.50
2019-02-26T12:03:45.880Z,35.46
2019-02-26T12:08:50.076Z,35.10
2019-02-26T12:13:53.223Z,35.29
2019-02-26T12:18:58.674Z,35.95
2019-02-26T12:24:03.203Z,33.94
2019-02-26T12:29:04.505Z,34.54
2019-02-26T12:34:09.164Z,34.92
2019-02-26T12:39:11.122Z,33.88
2019-02-26T12:44:16.198Z,34.53
2019-02-26T12:49:22.399Z,33.49
2019-02-26T12:54:22.564Z,31.16
2019-02-26T12:59:26.050Z,29.65
2019-02-26T13:04:29.477Z,28.61
2019-02-26T13:09:32.891Z,28.95
2019-02-26T13:14:36.388Z,29.67
2019-02-26T13:19:39.791Z,28.99
2019-02-26T13:24:43.200Z,24.23
2019-02-26T13:29:53.447Z,23.22
2019-02-26T13:34:52.513Z,22.82
2019-02-26T13:39:53.586Z,22.58
2019-02-26T13:44:57.086Z,21.67
2019-02-26T13:50:00.574Z,21.58
2019-02-26T13:55:04.212Z,21.09
2019-02-26T14:00:08.475Z,20.72
2019-02-26T14:05:12.039Z,21.83
2019-02-26T14:10:16.079Z,21.63
2019-02-26T14:15:22.030Z,20.88
2019-02-26T14:20:25.489Z,21.38
2019-02-26T14:25:28.907Z,21.48
2019-02-26T14:30:32.404Z,21.50
2019-02-26T14:35:35.901Z,22.41
2019-02-26T14:40:39.351Z,21.42
2019-02-26T14:45:42.810Z,22.47
2019-02-26T14:50:46.250Z,20.88
2019-02-26T14:55:49.722Z,19.92
2019-02-26T15:00:57.735Z,19.65
2019-02-26T15:05:56.749Z,19.05
2019-02-26T15:11:00.228Z,19.95
2019-02-26T15:16:03.658Z,19.76
2019-02-26T15:21:07.197Z,21.99
2019-02-26T15:26:10.633Z,20.83
2019-02-26T15:31:14.095Z,23.18
2019-02-26T15:36:17.529Z,20.92
2019-02-26T15:41:21.083Z,19.73
2019-02-26T15:46:24.561Z,21.75
2019-02-26T15:51:28.007Z,23.36
2019-02-26T15:56:31.531Z,23.05
2019-02-26T16:01:34.963Z,23.90
2019-02-26T16:06:38.500Z,23.34
2019-02-26T16:11:41.920Z,23.20
2019-02-26T16:16:45.384Z,22.18
2019-02-26T16:21:48.864Z,22.37
2019-02-26T16:26:55.268Z,22.30
2019-02-26T16:31:58.820Z,22.90
2019-02-26T16:37:03.278Z,24.00
2019-02-26T16:42:06.198Z,24.81
2019-02-26T16:47:09.818Z,25.15
2019-02-26T16:52:13.320Z,26.56
2019-02-26T16:57:16.818Z,27.38
2019-02-26T17:02:20.326Z,28.45
2019-02-26T17:07:23.782Z,30.03
2019-02-26T17:12:29.166Z,30.04
2019-02-26T17:17:30.829Z,30.70
2019-02-26T17:22:34.378Z,31.09
2019-02-26T17:27:38.940Z,32.37
2019-02-26T17:32:41.405Z,33.69
2019-02-26T17:37:44.862Z,33.70
2019-02-26T17:42:48.848Z,37.94
2019-02-26T17:47:51.784Z,34.06
2019-02-26T17:58:01.941Z,35.49
2019-02-26T18:03:07.241Z,36.16
2019-02-26T18:08:08.876Z,36.27
2019-02-26T18:13:12.391Z,37.15
2019-02-26T18:18:15.886Z,37.91
2019-02-26T18:23:19.495Z,37.92
2019-02-26T18:28:23.049Z,39.54
2019-02-26T18:33:26.645Z,41.88
2019-02-26T18:38:30.136Z,41.89
2019-02-26T18:43:33.781Z,40.43
2019-02-26T18:48:37.294Z,39.99
2019-02-26T18:53:41.818Z,39.41
2019-02-26T18:58:46.661Z,39.36
2019-02-26T19:03:48.951Z,39.38
2019-02-26T19:08:52.407Z,38.70
2019-02-26T19:13:55.907Z,40.44
2019-02-26T19:19:00.425Z,39.22
2019-02-26T19:24:04.632Z,41.03
2019-02-26T19:29:07.486Z,42.73
2019-02-26T19:34:10.959Z,40.81
2019-02-26T19:39:14.604Z,39.49
2019-02-26T19:44:18.150Z,40.99
2019-02-26T19:49:21.730Z,41.47
2019-02-26T19:54:25.299Z,42.36
2019-02-26T19:59:28.740Z,43.39
2019-02-26T20:04:32.232Z,45.10
2019-02-26T20:09:38.608Z,41.75
2019-02-26T20:14:39.392Z,44.33
2019-02-26T20:19:42.879Z,44.25
2019-02-26T20:24:46.484Z,44.25
2019-02-26T20:29:50.792Z,44.63
2019-02-26T20:34:54.404Z,44.17
2019-02-26T20:39:57.828Z,45.55
2019-02-26T20:45:01.436Z,45.45
2019-02-26T20:50:05.209Z,44.96
2019-02-26T20:55:10.589Z,45.32
2019-02-26T21:00:15.600Z,46.51
2019-02-26T21:05:19.231Z,46.77
2019-02-26T21:10:22.661Z,46.56
2019-02-26T21:15:26.148Z,47.34
2019-02-26T21:20:29.552Z,48.16
2019-02-26T21:25:33.002Z,48.52
2019-02-26T21:30:36.468Z,47.54
2019-02-26T21:35:39.873Z,47.88
2019-02-26T21:40:43.337Z,46.88
2019-02-26T21:45:49.105Z,48.74
2019-02-26T21:50:50.195Z,48.03
2019-02-26T21:55:55.557Z,48.61
2019-02-26T22:00:57.122Z,48.23
2019-02-26T22:06:05.274Z,48.99
2019-02-26T22:11:04.037Z,49.18
2019-02-26T22:16:07.621Z,49.68
2019-02-26T22:21:11.024Z,48.00
2019-02-26T22:26:14.435Z,48.85
2019-02-26T22:31:17.874Z,48.83
2019-02-26T22:36:21.272Z,49.05
2019-02-26T22:41:24.689Z,50.11
2019-02-26T22:46:28.227Z,51.87
2019-02-26T22:51:31.657Z,51.45
2019-02-26T22:56:35.105Z,51.69
2019-02-26T23:01:42.936Z,51.82
2019-02-26T23:06:46.454Z,53.00
2019-02-26T23:11:49.957Z,51.65
2019-02-26T23:16:53.372Z,52.46
2019-02-26T23:21:56.893Z,51.49
2019-02-26T23:27:00.496Z,51.75
2019-02-26T23:32:06.133Z,52.57
2019-02-26T23:37:08.480Z,53.71
2019-02-26T23:42:11.881Z,51.55
2019-02-26T23:47:15.239Z,50.69
2019-02-26T23:52:18.627Z,51.50
2019-02-26T23:57:22.746Z,52.53
